sensor_id;sensor_type;location;lat;lon;timestamp;pressure;altitude;pressure_sealevel;temperature;humidity
52735;BME280;38631;47.572;10.704;2023-09-07T00:01:44;92955.75;;;13.67;100.00
52735;BME280;38631;47.572;10.704;2023-09-07T00:04:09;92952.44;;;14.13;100.00
52735;BME280;38631;47.572;10.704;2023-09-07T00:06:35;92958.25;;;14.07;100.00
52735;BME280;38631;47.572;10.704;2023-09-07T00:09:02;92960.00;;;14.20;100.00
52735;BME280;38631;47.572;10.704;2023-09-07T00:11:27;92940.84;;;13.74;100.00
52735;BME280;38631;47.572;10.704;2023-09-07T00:13:53;92950.06;;;14.12;100.00
52735;BME280;38631;47.572;10.704;2023-09-07T00:16:18;92948.53;;;14.11;100.00
52735;BME280;38631;47.572;10.704;2023-09-07T00:18:43;92949.13;;;14.16;100.00
52735;BME280;38631;47.572;10.704;2023-09-07T00:21:09;92947.41;;;14.12;100.00
52735;BME280;38631;47.572;10.704;2023-09-07T00:23:34;92947.91;;;14.05;100.00
52735;BME280;38631;47.572;10.704;2023-09-07T00:26:00;92954.66;;;13.94;100.00
52735;BME280;38631;47.572;10.704;2023-09-07T00:28:25;92952.00;;;14.02;100.00
52735;BME280;38631;47.572;10.704;2023-09-07T00:30:50;92943.34;;;13.71;100.00
52735;BME280;38631;47.572;10.704;2023-09-07T00:33:16;92946.00;;;13.97;100.00
52735;BME280;38631;47.572;10.704;2023-09-07T00:35:41;92936.59;;;13.99;100.00
52735;BME280;38631;47.572;10.704;2023-09-07T00:38:07;92941.47;;;13.97;100.00
52735;BME280;38631;47.572;10.704;2023-09-07T00:40:32;92938.63;;;14.20;100.00
52735;BME280;38631;47.572;10.704;2023-09-07T00:42:58;92946.63;;;14.20;100.00
52735;BME280;38631;47.572;10.704;2023-09-07T00:45:24;92946.97;;;13.75;100.00
52735;BME280;38631;47.572;10.704;2023-09-07T00:47:49;92948.53;;;13.76;100.00
52735;BME280;38631;47.572;10.704;2023-09-07T00:50:15;92941.06;;;13.21;100.00
52735;BME280;38631;47.572;10.704;2023-09-07T00:52:44;92943.97;;;13.50;100.00
52735;BME280;38631;47.572;10.704;2023-09-07T00:55:10;92947.75;;;13.67;100.00
52735;BME280;38631;47.572;10.704;2023-09-07T00:57:37;92948.38;;;13.81;100.00
52735;BME280;38631;47.572;10.704;2023-09-07T01:00:05;92947.91;;;13.96;100.00
52735;BME280;38631;47.572;10.704;2023-09-07T01:02:31;92935.31;;;13.97;100.00
52735;BME280;38631;47.572;10.704;2023-09-07T01:04:57;92938.97;;;13.57;100.00
52735;BME280;38631;47.572;10.704;2023-09-07T01:07:40;92943.31;;;13.36;100.00
52735;BME280;38631;47.572;10.704;2023-09-07T01:10:07;92946.47;;;13.47;100.00
52735;BME280;38631;47.572;10.704;2023-09-07T01:12:33;92939.25;;;13.56;100.00
52735;BME280;38631;47.572;10.704;2023-09-07T01:14:58;92937.69;;;13.81;100.00
52735;BME280;38631;47.572;10.704;2023-09-07T01:17:24;92942.41;;;13.84;100.00
52735;BME280;38631;47.572;10.704;2023-09-07T01:19:51;92944.78;;;13.77;100.00
52735;BME280;38631;47.572;10.704;2023-09-07T01:22:20;92938.00;;;13.53;100.00
52735;BME280;38631;47.572;10.704;2023-09-07T01:24:50;92933.94;;;13.56;100.00
52735;BME280;38631;47.572;10.704;2023-09-07T01:27:16;92927.03;;;13.64;100.00
52735;BME280;38631;47.572;10.704;2023-09-07T01:29:42;92932.78;;;13.22;100.00
52735;BME280;38631;47.572;10.704;2023-09-07T01:32:07;92915.88;;;13.44;100.00
52735;BME280;38631;47.572;10.704;2023-09-07T01:34:37;92921.19;;;13.44;100.00
52735;BME280;38631;47.572;10.704;2023-09-07T01:37:02;92929.38;;;13.56;100.00
52735;BME280;38631;47.572;10.704;2023-09-07T01:39:27;92915.03;;;13.26;100.00
52735;BME280;38631;47.572;10.704;2023-09-07T01:41:53;92924.13;;;13.25;100.00
52735;BME280;38631;47.572;10.704;2023-09-07T01:44:19;92933.94;;;13.56;100.00
52735;BME280;38631;47.572;10.704;2023-09-07T01:46:44;92930.47;;;13.55;100.00
52735;BME280;38631;47.572;10.704;2023-09-07T01:49:10;92936.28;;;12.91;100.00
52735;BME280;38631;47.572;10.704;2023-09-07T01:51:35;92927.78;;;12.81;100.00
52735;BME280;38631;47.572;10.704;2023-09-07T01:54:02;92930.00;;;12.87;100.00
52735;BME280;38631;47.572;10.704;2023-09-07T01:56:27;92929.00;;;13.14;100.00
52735;BME280;38631;47.572;10.704;2023-09-07T01:58:52;92920.38;;;13.26;100.00
52735;BME280;38631;47.572;10.704;2023-09-07T02:01:25;92916.25;;;13.11;100.00
52735;BME280;38631;47.572;10.704;2023-09-07T02:03:51;92922.84;;;13.05;100.00
52735;BME280;38631;47.572;10.704;2023-09-07T02:06:17;92914.91;;;13.31;100.00
52735;BME280;38631;47.572;10.704;2023-09-07T02:08:42;92920.25;;;13.31;100.00
52735;BME280;38631;47.572;10.704;2023-09-07T02:11:07;92920.91;;;13.46;100.00
52735;BME280;38631;47.572;10.704;2023-09-07T02:13:33;92926.88;;;13.43;100.00
52735;BME280;38631;47.572;10.704;2023-09-07T02:15:58;92910.88;;;13.60;100.00
52735;BME280;38631;47.572;10.704;2023-09-07T02:18:24;92923.88;;;13.61;100.00
52735;BME280;38631;47.572;10.704;2023-09-07T02:20:49;92915.09;;;13.70;100.00
52735;BME280;38631;47.572;10.704;2023-09-07T02:23:14;92913.22;;;13.70;100.00
52735;BME280;38631;47.572;10.704;2023-09-07T02:25:43;92905.97;;;13.27;100.00
52735;BME280;38631;47.572;10.704;2023-09-07T02:28:08;92915.19;;;13.12;100.00
52735;BME280;38631;47.572;10.704;2023-09-07T02:30:33;92920.19;;;13.05;100.00
52735;BME280;38631;47.572;10.704;2023-09-07T02:32:59;92920.09;;;13.28;100.00
52735;BME280;38631;47.572;10.704;2023-09-07T02:35:24;92919.09;;;13.15;100.00
52735;BME280;38631;47.572;10.704;2023-09-07T02:37:49;92911.09;;;13.15;100.00
52735;BME280;38631;47.572;10.704;2023-09-07T02:40:15;92918.81;;;13.25;100.00
52735;BME280;38631;47.572;10.704;2023-09-07T02:42:41;92914.44;;;13.47;100.00
52735;BME280;38631;47.572;10.704;2023-09-07T02:45:11;92910.63;;;13.13;100.00
52735;BME280;38631;47.572;10.704;2023-09-07T02:47:38;92922.09;;;13.22;100.00
52735;BME280;38631;47.572;10.704;2023-09-07T02:50:03;92910.00;;;13.07;100.00
52735;BME280;38631;47.572;10.704;2023-09-07T02:52:29;92925.06;;;13.21;100.00
52735;BME280;38631;47.572;10.704;2023-09-07T02:54:54;92919.88;;;13.15;100.00
52735;BME280;38631;47.572;10.704;2023-09-07T02:57:20;92917.31;;;12.93;100.00
52735;BME280;38631;47.572;10.704;2023-09-07T02:59:45;92916.91;;;13.17;100.00
52735;BME280;38631;47.572;10.704;2023-09-07T03:02:11;92916.78;;;13.31;100.00
52735;BME280;38631;47.572;10.704;2023-09-07T03:04:37;92919.94;;;13.42;100.00
52735;BME280;38631;47.572;10.704;2023-09-07T03:07:02;92915.38;;;13.33;100.00
52735;BME280;38631;47.572;10.704;2023-09-07T03:09:28;92912.97;;;13.06;100.00
52735;BME280;38631;47.572;10.704;2023-09-07T03:11:53;92922.78;;;12.88;100.00
52735;BME280;38631;47.572;10.704;2023-09-07T03:14:19;92916.84;;;12.91;100.00
52735;BME280;38631;47.572;10.704;2023-09-07T03:16:44;92921.38;;;12.82;100.00
52735;BME280;38631;47.572;10.704;2023-09-07T03:19:09;92907.09;;;12.86;100.00
52735;BME280;38631;47.572;10.704;2023-09-07T03:21:35;92906.22;;;13.00;100.00
52735;BME280;38631;47.572;10.704;2023-09-07T03:24:00;92912.69;;;12.67;100.00
52735;BME280;38631;47.572;10.704;2023-09-07T03:26:26;92908.22;;;12.85;100.00
52735;BME280;38631;47.572;10.704;2023-09-07T03:28:51;92913.41;;;12.90;100.00
52735;BME280;38631;47.572;10.704;2023-09-07T03:31:17;92915.44;;;12.93;100.00
52735;BME280;38631;47.572;10.704;2023-09-07T03:33:42;92909.22;;;13.07;100.00
52735;BME280;38631;47.572;10.704;2023-09-07T03:36:08;92916.72;;;13.05;100.00
52735;BME280;38631;47.572;10.704;2023-09-07T03:38:34;92921.53;;;12.77;100.00
52735;BME280;38631;47.572;10.704;2023-09-07T03:41:00;92916.69;;;12.87;100.00
52735;BME280;38631;47.572;10.704;2023-09-07T03:43:25;92927.03;;;12.89;100.00
52735;BME280;38631;47.572;10.704;2023-09-07T03:45:51;92913.16;;;12.29;100.00
52735;BME280;38631;47.572;10.704;2023-09-07T03:48:16;92922.03;;;12.56;100.00
52735;BME280;38631;47.572;10.704;2023-09-07T03:50:42;92921.78;;;12.66;100.00
52735;BME280;38631;47.572;10.704;2023-09-07T03:53:07;92920.00;;;12.53;100.00
52735;BME280;38631;47.572;10.704;2023-09-07T03:55:43;92923.03;;;12.69;100.00
52735;BME280;38631;47.572;10.704;2023-09-07T03:58:09;92914.22;;;13.00;100.00
52735;BME280;38631;47.572;10.704;2023-09-07T04:00:38;92913.09;;;12.21;100.00
52735;BME280;38631;47.572;10.704;2023-09-07T04:03:04;92922.63;;;12.44;100.00
52735;BME280;38631;47.572;10.704;2023-09-07T04:05:29;92928.06;;;12.70;100.00
52735;BME280;38631;47.572;10.704;2023-09-07T04:07:54;92927.34;;;12.87;100.00
52735;BME280;38631;47.572;10.704;2023-09-07T04:10:20;92922.63;;;12.84;100.00
52735;BME280;38631;47.572;10.704;2023-09-07T04:12:45;92923.72;;;12.83;100.00
52735;BME280;38631;47.572;10.704;2023-09-07T04:15:11;92922.25;;;12.68;100.00
52735;BME280;38631;47.572;10.704;2023-09-07T04:17:37;92932.19;;;12.77;100.00
52735;BME280;38631;47.572;10.704;2023-09-07T04:20:09;92932.78;;;12.73;100.00
52735;BME280;38631;47.572;10.704;2023-09-07T04:22:38;92937.09;;;12.92;100.00
52735;BME280;38631;47.572;10.704;2023-09-07T04:25:03;92930.22;;;13.00;100.00
52735;BME280;38631;47.572;10.704;2023-09-07T04:27:30;92935.00;;;12.89;100.00
52735;BME280;38631;47.572;10.704;2023-09-07T04:29:56;92935.00;;;12.80;100.00
52735;BME280;38631;47.572;10.704;2023-09-07T04:32:21;92936.34;;;12.69;100.00
52735;BME280;38631;47.572;10.704;2023-09-07T04:34:46;92936.94;;;12.97;100.00
52735;BME280;38631;47.572;10.704;2023-09-07T04:37:12;92942.91;;;13.03;100.00
52735;BME280;38631;47.572;10.704;2023-09-07T04:39:37;92951.63;;;12.77;100.00
52735;BME280;38631;47.572;10.704;2023-09-07T04:42:02;92946.75;;;12.79;100.00
52735;BME280;38631;47.572;10.704;2023-09-07T04:44:28;92948.53;;;12.61;100.00
52735;BME280;38631;47.572;10.704;2023-09-07T04:46:56;92947.75;;;12.92;100.00
52735;BME280;38631;47.572;10.704;2023-09-07T04:49:23;92949.81;;;13.04;100.00
52735;BME280;38631;47.572;10.704;2023-09-07T04:51:52;92939.34;;;12.36;100.00
52735;BME280;38631;47.572;10.704;2023-09-07T04:54:18;92942.84;;;12.77;100.00
52735;BME280;38631;47.572;10.704;2023-09-07T04:56:44;92949.50;;;12.65;100.00
52735;BME280;38631;47.572;10.704;2023-09-07T04:59:09;92941.75;;;12.86;100.00
52735;BME280;38631;47.572;10.704;2023-09-07T05:01:35;92945.09;;;13.01;100.00
52735;BME280;38631;47.572;10.704;2023-09-07T05:04:00;92954.41;;;13.12;100.00
52735;BME280;38631;47.572;10.704;2023-09-07T05:06:28;92935.41;;;13.05;100.00
52735;BME280;38631;47.572;10.704;2023-09-07T05:08:54;92955.75;;;12.92;100.00
52735;BME280;38631;47.572;10.704;2023-09-07T05:11:19;92951.16;;;12.84;100.00
52735;BME280;38631;47.572;10.704;2023-09-07T05:13:45;92944.78;;;13.02;100.00
52735;BME280;38631;47.572;10.704;2023-09-07T05:16:10;92941.72;;;12.78;100.00
52735;BME280;38631;47.572;10.704;2023-09-07T05:18:35;92951.25;;;12.70;100.00
52735;BME280;38631;47.572;10.704;2023-09-07T05:21:01;92953.03;;;12.83;100.00
52735;BME280;38631;47.572;10.704;2023-09-07T05:23:27;92942.44;;;13.01;100.00
52735;BME280;38631;47.572;10.704;2023-09-07T05:25:54;92949.81;;;13.04;100.00
52735;BME280;38631;47.572;10.704;2023-09-07T05:28:20;92959.06;;;13.06;100.00
52735;BME280;38631;47.572;10.704;2023-09-07T05:30:46;92955.25;;;13.30;100.00
52735;BME280;38631;47.572;10.704;2023-09-07T05:33:14;92958.25;;;13.37;100.00
52735;BME280;38631;47.572;10.704;2023-09-07T05:35:40;92948.34;;;13.46;100.00
52735;BME280;38631;47.572;10.704;2023-09-07T05:38:05;92959.31;;;13.27;100.00
52735;BME280;38631;47.572;10.704;2023-09-07T05:40:36;92962.31;;;13.34;100.00
52735;BME280;38631;47.572;10.704;2023-09-07T05:43:01;92974.41;;;13.40;100.00
52735;BME280;38631;47.572;10.704;2023-09-07T05:45:26;92962.94;;;13.49;100.00
52735;BME280;38631;47.572;10.704;2023-09-07T05:47:52;92973.91;;;13.38;100.00
52735;BME280;38631;47.572;10.704;2023-09-07T05:50:18;92957.47;;;13.63;100.00
52735;BME280;38631;47.572;10.704;2023-09-07T05:52:43;92970.81;;;13.71;100.00
52735;BME280;38631;47.572;10.704;2023-09-07T05:55:08;92963.47;;;13.77;100.00
52735;BME280;38631;47.572;10.704;2023-09-07T05:57:34;92964.22;;;13.69;100.00
52735;BME280;38631;47.572;10.704;2023-09-07T05:59:59;92962.19;;;13.92;100.00
52735;BME280;38631;47.572;10.704;2023-09-07T06:02:25;92963.75;;;13.84;100.00
52735;BME280;38631;47.572;10.704;2023-09-07T06:04:50;92960.63;;;13.99;100.00
52735;BME280;38631;47.572;10.704;2023-09-07T06:07:15;92961.09;;;14.01;100.00
52735;BME280;38631;47.572;10.704;2023-09-07T06:09:41;92964.72;;;14.05;100.00
52735;BME280;38631;47.572;10.704;2023-09-07T06:12:06;92957.00;;;14.13;100.00
52735;BME280;38631;47.572;10.704;2023-09-07T06:14:32;92951.97;;;14.20;100.00
52735;BME280;38631;47.572;10.704;2023-09-07T06:16:57;92956.03;;;14.35;100.00
52735;BME280;38631;47.572;10.704;2023-09-07T06:19:22;92958.38;;;14.45;100.00
52735;BME280;38631;47.572;10.704;2023-09-07T06:21:48;92955.53;;;14.50;100.00
52735;BME280;38631;47.572;10.704;2023-09-07T06:24:14;92949.09;;;14.60;100.00
52735;BME280;38631;47.572;10.704;2023-09-07T06:26:39;92947.50;;;14.67;100.00
52735;BME280;38631;47.572;10.704;2023-09-07T06:29:05;92947.16;;;14.69;100.00
52735;BME280;38631;47.572;10.704;2023-09-07T06:31:30;92946.97;;;14.74;100.00
52735;BME280;38631;47.572;10.704;2023-09-07T06:33:55;92947.91;;;14.78;100.00
52735;BME280;38631;47.572;10.704;2023-09-07T06:36:21;92943.78;;;14.89;100.00
52735;BME280;38631;47.572;10.704;2023-09-07T06:38:46;92943.44;;;15.00;100.00
52735;BME280;38631;47.572;10.704;2023-09-07T06:41:12;92952.75;;;15.23;100.00
52735;BME280;38631;47.572;10.704;2023-09-07T06:43:37;92950.63;;;15.38;100.00
52735;BME280;38631;47.572;10.704;2023-09-07T06:46:07;92946.19;;;15.42;100.00
52735;BME280;38631;47.572;10.704;2023-09-07T06:48:33;92950.84;;;15.53;100.00
52735;BME280;38631;47.572;10.704;2023-09-07T06:51:02;92953.31;;;15.59;100.00
52735;BME280;38631;47.572;10.704;2023-09-07T06:53:29;92951.53;;;15.71;100.00
52735;BME280;38631;47.572;10.704;2023-09-07T06:56:02;92955.13;;;15.75;100.00
52735;BME280;38631;47.572;10.704;2023-09-07T06:58:28;92956.34;;;15.99;100.00
52735;BME280;38631;47.572;10.704;2023-09-07T07:00:57;92958.44;;;16.14;100.00
52735;BME280;38631;47.572;10.704;2023-09-07T07:03:26;92963.72;;;16.23;100.00
52735;BME280;38631;47.572;10.704;2023-09-07T07:05:52;92959.06;;;16.32;100.00
52735;BME280;38631;47.572;10.704;2023-09-07T07:08:17;92971.44;;;16.70;99.60
52735;BME280;38631;47.572;10.704;2023-09-07T07:10:43;92971.97;;;16.84;100.00
52735;BME280;38631;47.572;10.704;2023-09-07T07:13:08;92966.75;;;17.00;100.00
52735;BME280;38631;47.572;10.704;2023-09-07T07:15:34;92974.22;;;17.07;100.00
52735;BME280;38631;47.572;10.704;2023-09-07T07:18:01;92973.91;;;17.21;99.11
52735;BME280;38631;47.572;10.704;2023-09-07T07:20:26;92968.75;;;17.40;99.25
52735;BME280;38631;47.572;10.704;2023-09-07T07:22:51;92970.78;;;17.43;96.29
52735;BME280;38631;47.572;10.704;2023-09-07T07:25:17;92982.75;;;17.46;98.21
52735;BME280;38631;47.572;10.704;2023-09-07T07:27:42;92982.28;;;17.56;96.06
52735;BME280;38631;47.572;10.704;2023-09-07T07:30:08;92981.47;;;17.68;98.34
52735;BME280;38631;47.572;10.704;2023-09-07T07:32:34;92980.91;;;17.75;96.86
52735;BME280;38631;47.572;10.704;2023-09-07T07:34:59;92975.56;;;17.75;95.88
52735;BME280;38631;47.572;10.704;2023-09-07T07:37:25;92973.31;;;17.89;94.20
52735;BME280;38631;47.572;10.704;2023-09-07T07:39:50;92978.78;;;17.92;93.53
52735;BME280;38631;47.572;10.704;2023-09-07T07:42:16;92980.75;;;18.08;93.07
52735;BME280;38631;47.572;10.704;2023-09-07T07:44:43;92977.75;;;18.09;93.92
52735;BME280;38631;47.572;10.704;2023-09-07T07:47:09;92972.13;;;18.14;95.31
52735;BME280;38631;47.572;10.704;2023-09-07T07:49:34;92979.19;;;18.19;96.19
52735;BME280;38631;47.572;10.704;2023-09-07T07:52:01;92979.50;;;18.18;92.34
52735;BME280;38631;47.572;10.704;2023-09-07T07:54:26;92977.59;;;18.18;92.72
52735;BME280;38631;47.572;10.704;2023-09-07T07:56:53;92977.47;;;18.27;91.75
52735;BME280;38631;47.572;10.704;2023-09-07T07:59:19;92986.25;;;18.40;93.00
52735;BME280;38631;47.572;10.704;2023-09-07T08:01:45;92973.28;;;18.57;91.47
52735;BME280;38631;47.572;10.704;2023-09-07T08:04:10;92965.41;;;18.65;92.13
52735;BME280;38631;47.572;10.704;2023-09-07T08:06:36;92978.22;;;18.55;92.15
52735;BME280;38631;47.572;10.704;2023-09-07T08:09:02;92971.44;;;18.46;92.56
52735;BME280;38631;47.572;10.704;2023-09-07T08:11:28;92977.72;;;18.50;91.23
52735;BME280;38631;47.572;10.704;2023-09-07T08:13:54;92963.56;;;18.53;92.63
52735;BME280;38631;47.572;10.704;2023-09-07T08:16:20;92980.84;;;18.80;91.05
52735;BME280;38631;47.572;10.704;2023-09-07T08:18:46;92987.44;;;18.83;92.25
52735;BME280;38631;47.572;10.704;2023-09-07T08:21:14;92969.81;;;18.85;93.40
52735;BME280;38631;47.572;10.704;2023-09-07T08:23:45;92969.06;;;19.16;91.41
52735;BME280;38631;47.572;10.704;2023-09-07T08:26:11;92981.66;;;19.12;92.25
52735;BME280;38631;47.572;10.704;2023-09-07T08:28:38;92968.59;;;18.83;91.74
52735;BME280;38631;47.572;10.704;2023-09-07T08:31:03;92969.63;;;18.78;92.63
52735;BME280;38631;47.572;10.704;2023-09-07T08:33:31;92982.16;;;18.86;92.93
52735;BME280;38631;47.572;10.704;2023-09-07T08:35:58;92972.19;;;18.87;92.73
52735;BME280;38631;47.572;10.704;2023-09-07T08:38:26;92981.06;;;19.19;93.11
52735;BME280;38631;47.572;10.704;2023-09-07T08:41:00;92973.91;;;19.11;91.51
52735;BME280;38631;47.572;10.704;2023-09-07T08:43:33;92977.41;;;19.11;93.26
52735;BME280;38631;47.572;10.704;2023-09-07T08:46:13;92974.47;;;19.16;91.72
52735;BME280;38631;47.572;10.704;2023-09-07T08:48:42;92974.78;;;19.31;91.20
52735;BME280;38631;47.572;10.704;2023-09-07T08:51:09;92977.56;;;19.34;90.55
52735;BME280;38631;47.572;10.704;2023-09-07T08:53:39;92978.16;;;19.43;90.08
52735;BME280;38631;47.572;10.704;2023-09-07T08:56:06;92980.78;;;19.40;90.50
52735;BME280;38631;47.572;10.704;2023-09-07T08:58:39;92974.19;;;19.21;90.60
52735;BME280;38631;47.572;10.704;2023-09-07T09:01:06;92982.44;;;19.45;92.00
52735;BME280;38631;47.572;10.704;2023-09-07T09:03:36;92981.03;;;19.51;92.57
52735;BME280;38631;47.572;10.704;2023-09-07T09:06:05;92977.44;;;19.62;93.25
52735;BME280;38631;47.572;10.704;2023-09-07T09:11:09;92979.72;;;19.45;93.58
52735;BME280;38631;47.572;10.704;2023-09-07T09:13:36;92985.28;;;19.52;92.73
52735;BME280;38631;47.572;10.704;2023-09-07T09:16:02;92978.09;;;19.72;94.03
52735;BME280;38631;47.572;10.704;2023-09-07T09:18:29;92980.06;;;19.59;93.75
52735;BME280;38631;47.572;10.704;2023-09-07T09:20:55;92966.69;;;19.47;94.03
52735;BME280;38631;47.572;10.704;2023-09-07T09:23:22;92977.88;;;19.64;94.63
52735;BME280;38631;47.572;10.704;2023-09-07T09:25:48;92969.63;;;19.57;94.85
52735;BME280;38631;47.572;10.704;2023-09-07T09:28:14;92971.28;;;19.62;94.87
52735;BME280;38631;47.572;10.704;2023-09-07T09:30:41;92967.53;;;19.67;93.94
52735;BME280;38631;47.572;10.704;2023-09-07T09:33:10;92973.53;;;19.60;94.12
52735;BME280;38631;47.572;10.704;2023-09-07T09:35:37;92964.16;;;19.70;95.23
52735;BME280;38631;47.572;10.704;2023-09-07T09:38:06;92966.94;;;19.73;94.72
52735;BME280;38631;47.572;10.704;2023-09-07T09:40:33;92961.75;;;20.00;95.08
52735;BME280;38631;47.572;10.704;2023-09-07T09:43:02;92958.19;;;19.96;93.26
52735;BME280;38631;47.572;10.704;2023-09-07T09:45:29;92966.19;;;19.92;94.29
52735;BME280;38631;47.572;10.704;2023-09-07T09:47:55;92950.97;;;20.00;94.86
52735;BME280;38631;47.572;10.704;2023-09-07T09:50:22;92968.56;;;20.13;94.81
52735;BME280;38631;47.572;10.704;2023-09-07T09:52:48;92952.88;;;20.19;94.23
52735;BME280;38631;47.572;10.704;2023-09-07T09:55:15;92967.78;;;20.13;94.06
52735;BME280;38631;47.572;10.704;2023-09-07T09:57:44;92951.88;;;20.07;95.82
52735;BME280;38631;47.572;10.704;2023-09-07T10:00:10;92955.38;;;20.27;94.07
52735;BME280;38631;47.572;10.704;2023-09-07T10:03:16;92965.38;;;20.27;95.12
52735;BME280;38631;47.572;10.704;2023-09-07T10:05:47;92950.75;;;20.47;96.01
52735;BME280;38631;47.572;10.704;2023-09-07T10:08:13;92961.97;;;20.49;95.31
52735;BME280;38631;47.572;10.704;2023-09-07T10:10:41;92952.91;;;20.58;94.55
52735;BME280;38631;47.572;10.704;2023-09-07T10:13:07;92946.28;;;20.16;93.63
52735;BME280;38631;47.572;10.704;2023-09-07T10:15:34;92953.63;;;20.55;96.47
52735;BME280;38631;47.572;10.704;2023-09-07T10:18:14;92941.94;;;20.50;94.49
52735;BME280;38631;47.572;10.704;2023-09-07T10:20:57;92945.72;;;20.65;94.66
52735;BME280;38631;47.572;10.704;2023-09-07T10:23:36;92943.31;;;20.60;93.56
52735;BME280;38631;47.572;10.704;2023-09-07T10:26:03;92949.84;;;20.59;94.29
52735;BME280;38631;47.572;10.704;2023-09-07T10:28:31;92957.00;;;20.52;96.45
52735;BME280;38631;47.572;10.704;2023-09-07T10:31:17;92950.63;;;20.60;98.82
52735;BME280;38631;47.572;10.704;2023-09-07T10:33:43;92939.25;;;20.50;100.00
52735;BME280;38631;47.572;10.704;2023-09-07T10:36:24;92952.94;;;20.61;98.27
52735;BME280;38631;47.572;10.704;2023-09-07T10:38:50;92954.81;;;20.77;97.29
52735;BME280;38631;47.572;10.704;2023-09-07T10:41:18;92949.28;;;20.92;97.53
52735;BME280;38631;47.572;10.704;2023-09-07T10:43:54;92935.44;;;21.17;97.30
52735;BME280;38631;47.572;10.704;2023-09-07T10:46:21;92945.25;;;21.06;95.00
52735;BME280;38631;47.572;10.704;2023-09-07T10:48:51;92945.38;;;20.90;97.25
52735;BME280;38631;47.572;10.704;2023-09-07T10:51:20;92945.06;;;21.18;95.69
52735;BME280;38631;47.572;10.704;2023-09-07T10:53:46;92938.91;;;21.41;97.95
52735;BME280;38631;47.572;10.704;2023-09-07T10:56:11;92934.75;;;21.24;94.99
52735;BME280;38631;47.572;10.704;2023-09-07T10:58:42;92935.53;;;21.24;93.40
52735;BME280;38631;47.572;10.704;2023-09-07T11:01:09;92931.53;;;21.14;92.91
52735;BME280;38631;47.572;10.704;2023-09-07T11:03:36;92922.03;;;21.24;93.47
52735;BME280;38631;47.572;10.704;2023-09-07T11:06:12;92927.53;;;21.31;93.39
52735;BME280;38631;47.572;10.704;2023-09-07T11:08:38;92915.91;;;21.27;92.13
52735;BME280;38631;47.572;10.704;2023-09-07T11:11:04;92924.03;;;21.54;92.46
52735;BME280;38631;47.572;10.704;2023-09-07T11:13:30;92928.09;;;21.67;91.49
52735;BME280;38631;47.572;10.704;2023-09-07T11:15:57;92919.38;;;21.77;87.90
52735;BME280;38631;47.572;10.704;2023-09-07T11:18:24;92927.16;;;21.83;88.63
52735;BME280;38631;47.572;10.704;2023-09-07T11:20:51;92924.97;;;21.65;85.75
52735;BME280;38631;47.572;10.704;2023-09-07T11:23:18;92909.59;;;21.43;86.10
52735;BME280;38631;47.572;10.704;2023-09-07T11:25:49;92925.19;;;21.53;87.00
52735;BME280;38631;47.572;10.704;2023-09-07T11:28:17;92916.00;;;21.57;86.87
52735;BME280;38631;47.572;10.704;2023-09-07T11:30:53;92916.47;;;21.63;85.42
52735;BME280;38631;47.572;10.704;2023-09-07T11:33:21;92922.59;;;21.60;86.95
52735;BME280;38631;47.572;10.704;2023-09-07T11:35:46;92911.16;;;21.70;88.10
52735;BME280;38631;47.572;10.704;2023-09-07T11:38:13;92914.75;;;22.08;86.90
52735;BME280;38631;47.572;10.704;2023-09-07T11:40:39;92918.31;;;21.86;86.33
52735;BME280;38631;47.572;10.704;2023-09-07T11:43:08;92912.69;;;21.98;86.67
52735;BME280;38631;47.572;10.704;2023-09-07T11:45:33;92913.56;;;22.09;86.25
52735;BME280;38631;47.572;10.704;2023-09-07T11:47:59;92913.44;;;21.98;86.26
52735;BME280;38631;47.572;10.704;2023-09-07T11:50:26;92918.31;;;21.86;86.94
52735;BME280;38631;47.572;10.704;2023-09-07T11:52:55;92919.47;;;21.85;86.90
52735;BME280;38631;47.572;10.704;2023-09-07T11:55:21;92914.28;;;22.03;87.19
52735;BME280;38631;47.572;10.704;2023-09-07T11:57:48;92901.97;;;22.05;88.09
52735;BME280;38631;47.572;10.704;2023-09-07T12:00:13;92902.38;;;22.07;89.87
52735;BME280;38631;47.572;10.704;2023-09-07T12:02:40;92903.72;;;22.20;89.08
52735;BME280;38631;47.572;10.704;2023-09-07T12:05:06;92907.84;;;22.14;89.29
52735;BME280;38631;47.572;10.704;2023-09-07T12:07:36;92906.63;;;22.08;88.47
52735;BME280;38631;47.572;10.704;2023-09-07T12:10:02;92901.63;;;22.10;87.83
52735;BME280;38631;47.572;10.704;2023-09-07T12:12:27;92907.72;;;22.34;89.24
52735;BME280;38631;47.572;10.704;2023-09-07T12:14:53;92898.38;;;22.28;89.29
52735;BME280;38631;47.572;10.704;2023-09-07T12:17:18;92899.06;;;22.21;89.96
52735;BME280;38631;47.572;10.704;2023-09-07T12:19:45;92900.75;;;22.33;91.83
52735;BME280;38631;47.572;10.704;2023-09-07T12:22:11;92893.84;;;22.39;92.60
52735;BME280;38631;47.572;10.704;2023-09-07T12:24:37;92906.63;;;22.38;90.43
52735;BME280;38631;47.572;10.704;2023-09-07T12:27:03;92887.31;;;22.40;92.00
52735;BME280;38631;47.572;10.704;2023-09-07T12:29:29;92904.03;;;22.49;92.94
52735;BME280;38631;47.572;10.704;2023-09-07T12:31:54;92891.59;;;22.44;92.02
52735;BME280;38631;47.572;10.704;2023-09-07T12:34:20;92895.13;;;22.49;90.50
52735;BME280;38631;47.572;10.704;2023-09-07T12:36:46;92897.72;;;22.38;90.80
52735;BME280;38631;47.572;10.704;2023-09-07T12:39:11;92897.81;;;22.45;89.87
52735;BME280;38631;47.572;10.704;2023-09-07T12:41:38;92888.59;;;22.50;90.56
52735;BME280;38631;47.572;10.704;2023-09-07T12:44:07;92890.53;;;22.53;91.87
52735;BME280;38631;47.572;10.704;2023-09-07T12:46:34;92886.66;;;22.54;90.29